createdAt,value
2022-09-12T00:00:10.959Z,98705.78
2022-09-12T00:02:39.995Z,98703.56
2022-09-12T00:05:07.323Z,98704.34
2022-09-12T00:07:34.035Z,98693.56
2022-09-12T00:10:00.848Z,98699.59
2022-09-12T00:12:27.211Z,98690.88
2022-09-12T00:14:53.568Z,98695.22
2022-09-12T00:17:19.973Z,98690.47
2022-09-12T00:19:46.371Z,98698.31
2022-09-12T00:22:12.755Z,98687.50
2022-09-12T00:24:40.771Z,98685.00
2022-09-12T00:27:07.142Z,98693.06
2022-09-12T00:29:33.499Z,98692.44
2022-09-12T00:31:59.954Z,98694.72
2022-09-12T00:34:26.362Z,98685.34
2022-09-12T00:36:52.814Z,98683.44
2022-09-12T00:39:19.726Z,98685.31
2022-09-12T00:41:46.190Z,98687.56
2022-09-12T00:44:12.475Z,98684.28
2022-09-12T00:46:41.587Z,98684.22
2022-09-12T00:49:15.956Z,98689.03
2022-09-12T00:51:48.599Z,98682.19
2022-09-12T00:54:19.497Z,98684.63
2022-09-12T00:56:50.500Z,98681.28
2022-09-12T00:59:29.296Z,98680.06
2022-09-12T01:01:56.414Z,98679.63
2022-09-12T01:04:25.542Z,98688.09
2022-09-12T01:06:53.301Z,98691.56
2022-09-12T01:09:22.312Z,98688.41
2022-09-12T01:11:50.502Z,98688.25
2022-09-12T01:14:18.613Z,98687.22
2022-09-12T01:16:47.223Z,98683.38
2022-09-12T01:19:35.073Z,98679.84
2022-09-12T01:22:36.506Z,98675.69
2022-09-12T01:25:24.477Z,98670.06
2022-09-12T01:28:23.471Z,98675.69
2022-09-12T01:31:01.043Z,98671.72
2022-09-12T01:33:48.343Z,98674.03
2022-09-12T01:36:36.896Z,98668.31
2022-09-12T01:39:20.534Z,98666.88
2022-09-12T01:42:05.041Z,98665.59
2022-09-12T01:44:39.735Z,98667.63
2022-09-12T01:47:16.324Z,98660.38
2022-09-12T01:49:57.841Z,98663.66
2022-09-12T01:52:32.172Z,98657.25
2022-09-12T01:55:10.685Z,98660.53
2022-09-12T01:57:46.815Z,98658.78
2022-09-12T02:00:14.073Z,98652.50
2022-09-12T02:02:43.269Z,98653.16
2022-09-12T02:05:16.215Z,98657.06
2022-09-12T02:07:51.762Z,98647.25
2022-09-12T02:10:23.011Z,98648.94
2022-09-12T02:13:03.571Z,98649.78
2022-09-12T02:15:43.171Z,98631.69
2022-09-12T02:18:14.395Z,98636.44
2022-09-12T02:20:50.285Z,98629.00
2022-09-12T02:23:24.949Z,98626.78
2022-09-12T02:25:56.126Z,98625.88
2022-09-12T02:28:35.896Z,98627.72
2022-09-12T02:31:14.827Z,98628.38
2022-09-12T02:33:53.530Z,98635.63
2022-09-12T02:36:37.457Z,98631.06
2022-09-12T02:39:04.175Z,98632.72
2022-09-12T02:41:30.631Z,98636.06
2022-09-12T02:43:57.240Z,98634.78
2022-09-12T02:46:26.439Z,98638.50
2022-09-12T02:48:53.997Z,98631.28
2022-09-12T02:51:23.827Z,98632.28
2022-09-12T02:53:51.314Z,98636.38
2022-09-12T02:56:27.211Z,98641.94
2022-09-12T02:58:56.288Z,98636.81
2022-09-12T03:01:55.913Z,98642.59
2022-09-12T03:04:38.438Z,98640.09
2022-09-12T03:07:12.424Z,98636.81
2022-09-12T03:10:07.923Z,98633.09
2022-09-12T03:12:42.960Z,98637.19
2022-09-12T03:15:24.615Z,98636.19
2022-09-12T03:18:14.537Z,98637.19
2022-09-12T03:21:01.250Z,98628.88
2022-09-12T03:23:50.633Z,98626.75
2022-09-12T03:26:26.454Z,98628.22
2022-09-12T03:28:55.756Z,98634.56
2022-09-12T03:31:22.284Z,98636.97
2022-09-12T03:33:48.609Z,98635.59
2022-09-12T03:36:25.865Z,98629.47
2022-09-12T03:38:52.500Z,98636.50
2022-09-12T03:41:19.099Z,98639.78
2022-09-12T03:43:46.106Z,98641.88
2022-09-12T03:46:13.544Z,98632.09
2022-09-12T03:48:40.964Z,98629.97
2022-09-12T03:51:09.995Z,98641.56
2022-09-12T03:53:36.978Z,98630.53
2022-09-12T03:56:12.079Z,98625.53
2022-09-12T03:58:39.580Z,98625.72
2022-09-12T04:01:12.606Z,98625.72
2022-09-12T04:03:47.654Z,98632.13
2022-09-12T04:06:17.686Z,98619.22
2022-09-12T04:08:47.484Z,98623.41
2022-09-12T04:11:15.326Z,98615.63
2022-09-12T04:13:43.571Z,98620.53
2022-09-12T04:16:11.142Z,98618.22
2022-09-12T04:18:37.992Z,98624.59
2022-09-12T04:21:09.261Z,98613.78
2022-09-12T04:23:36.212Z,98617.88
2022-09-12T04:26:06.406Z,98621.75
2022-09-12T04:28:34.462Z,98618.63
2022-09-12T04:31:07.459Z,98618.25
2022-09-12T04:33:35.325Z,98621.47
2022-09-12T04:36:14.526Z,98625.19
2022-09-12T04:38:41.186Z,98626.03
2022-09-12T04:41:28.569Z,98620.16
2022-09-12T04:44:04.143Z,98624.25
2022-09-12T04:46:33.909Z,98628.44
2022-09-12T04:49:00.295Z,98625.75
2022-09-12T04:51:33.665Z,98623.22
2022-09-12T04:54:06.387Z,98630.47
2022-09-12T04:56:34.211Z,98625.91
2022-09-12T04:59:01.406Z,98629.25
2022-09-12T05:01:30.080Z,98630.09
2022-09-12T05:03:57.979Z,98622.56
2022-09-12T05:06:27.655Z,98631.13
2022-09-12T05:08:56.028Z,98627.41
2022-09-12T05:11:36.857Z,98626.13
2022-09-12T05:14:12.815Z,98619.91
2022-09-12T05:16:39.427Z,98623.31
2022-09-12T05:19:05.857Z,98627.88
2022-09-12T05:21:32.389Z,98629.06
2022-09-12T05:24:00.104Z,98629.53
2022-09-12T05:26:27.142Z,98628.44
2022-09-12T05:28:54.318Z,98629.44
2022-09-12T05:31:23.366Z,98625.84
2022-09-12T05:33:51.477Z,98623.53
2022-09-12T05:36:23.960Z,98617.41
2022-09-12T05:38:50.799Z,98613.59
2022-09-12T05:41:24.213Z,98618.22
2022-09-12T05:43:53.780Z,98616.56
2022-09-12T05:46:22.839Z,98620.00
2022-09-12T05:48:55.115Z,98611.75
2022-09-12T05:51:28.409Z,98610.81
2022-09-12T05:53:59.877Z,98603.41
2022-09-12T05:56:28.688Z,98603.59
2022-09-12T05:58:57.964Z,98602.00
2022-09-12T06:01:27.043Z,98606.56
2022-09-12T06:03:55.211Z,98601.00
2022-09-12T06:06:24.336Z,98609.88
2022-09-12T06:08:53.144Z,98613.59
2022-09-12T06:11:22.947Z,98608.66
2022-09-12T06:13:50.875Z,98617.03
2022-09-12T06:16:20.129Z,98617.03
2022-09-12T06:18:48.803Z,98621.28
2022-09-12T06:21:15.683Z,98625.28
2022-09-12T06:23:42.635Z,98630.16
2022-09-12T06:26:10.855Z,98629.53
2022-09-12T06:28:40.333Z,98631.97
2022-09-12T06:31:08.045Z,98627.41
2022-09-12T06:33:36.031Z,98632.84
2022-09-12T06:36:12.047Z,98632.72
2022-09-12T06:38:39.823Z,98635.72
2022-09-12T06:41:12.194Z,98637.00
2022-09-12T06:43:40.340Z,98637.94
2022-09-12T06:46:07.524Z,98631.22
2022-09-12T06:48:38.311Z,98641.78
2022-09-12T06:51:11.386Z,98651.63
2022-09-12T06:53:38.086Z,98645.53
2022-09-12T06:56:15.676Z,98649.09
2022-09-12T06:58:43.545Z,98641.66
2022-09-12T07:01:14.363Z,98637.88
2022-09-12T07:03:41.835Z,98629.81
2022-09-12T07:06:13.675Z,98642.41
2022-09-12T07:08:40.958Z,98633.63
2022-09-12T07:11:11.896Z,98631.09
2022-09-12T07:13:39.687Z,98627.88
2022-09-12T07:16:06.580Z,98631.75
2022-09-12T07:18:34.611Z,98629.84
2022-09-12T07:21:02.249Z,98622.75
2022-09-12T07:23:30.209Z,98630.59
2022-09-12T07:25:58.591Z,98619.94
2022-09-12T07:28:30.600Z,98629.25
2022-09-12T07:30:57.885Z,98618.13
2022-09-12T07:33:27.719Z,98623.97
2022-09-12T07:35:54.388Z,98620.81
2022-09-12T07:38:21.553Z,98618.13
2022-09-12T07:40:48.128Z,98622.91
2022-09-12T07:43:14.579Z,98616.75
2022-09-12T07:45:42.272Z,98619.72
2022-09-12T07:48:09.515Z,98613.94
2022-09-12T07:50:36.682Z,98619.59
2022-09-12T07:53:06.548Z,98616.97
2022-09-12T07:55:33.107Z,98613.94
2022-09-12T07:57:59.577Z,98609.53
2022-09-12T08:00:26.607Z,98618.06
2022-09-12T08:02:53.845Z,98612.84
2022-09-12T08:05:20.747Z,98607.00
2022-09-12T08:07:47.627Z,98611.78
2022-09-12T08:10:14.129Z,98611.94
2022-09-12T08:12:40.479Z,98606.00
2022-09-12T08:15:07.235Z,98604.53
2022-09-12T08:17:33.644Z,98604.84
2022-09-12T08:20:00.011Z,98601.94
2022-09-12T08:22:26.375Z,98604.13
2022-09-12T08:24:52.815Z,98600.22
2022-09-12T08:27:19.180Z,98598.22
2022-09-12T08:29:45.601Z,98598.34
2022-09-12T08:32:12.020Z,98589.75
2022-09-12T08:34:38.428Z,98598.88
2022-09-12T08:37:05.526Z,98606.44
2022-09-12T08:39:32.659Z,98598.94
2022-09-12T08:42:03.914Z,98608.56
2022-09-12T08:44:42.467Z,98602.75
2022-09-12T08:47:27.415Z,98608.38
2022-09-12T08:50:12.128Z,98604.84
2022-09-12T08:52:41.777Z,98605.44
2022-09-12T08:55:31.198Z,98600.25
2022-09-12T08:58:00.642Z,98600.72
2022-09-12T09:00:56.292Z,98605.19
2022-09-12T09:04:04.705Z,98599.28
2022-09-12T09:07:07.686Z,98606.44
2022-09-12T09:10:07.636Z,98603.69
2022-09-12T09:12:48.559Z,98594.94
2022-09-12T09:15:24.665Z,98600.13
2022-09-12T09:17:58.002Z,98591.63
2022-09-12T09:20:32.415Z,98594.91
2022-09-12T09:23:03.458Z,98590.84
2022-09-12T09:25:42.406Z,98590.53
2022-09-12T09:28:19.131Z,98588.63
2022-09-12T09:30:46.339Z,98588.63
2022-09-12T09:33:21.397Z,98587.25
2022-09-12T09:35:56.660Z,98576.03
2022-09-12T09:38:49.140Z,98587.00
2022-09-12T09:41:27.518Z,98579.94
2022-09-12T09:43:54.088Z,98578.63
2022-09-12T09:46:20.654Z,98574.53
2022-09-12T09:48:49.970Z,98570.13
2022-09-12T09:51:26.936Z,98573.28
2022-09-12T09:53:58.592Z,98571.31
2022-09-12T09:56:36.637Z,98575.72
2022-09-12T09:59:15.142Z,98573.75
2022-09-12T10:01:51.858Z,98575.16
2022-09-12T10:04:23.346Z,98573.44
2022-09-12T10:06:56.074Z,98574.84
2022-09-12T10:09:28.023Z,98572.09
2022-09-12T10:11:56.316Z,98568.03
2022-09-12T10:14:38.716Z,98570.22
2022-09-12T10:17:33.861Z,98565.00
2022-09-12T10:22:48.089Z,98556.81
2022-09-12T10:25:18.488Z,98550.44
2022-09-12T10:27:44.912Z,98547.16
2022-09-12T10:30:14.325Z,98550.22
2022-09-12T10:32:44.033Z,98550.41
2022-09-12T10:35:30.396Z,98555.16
2022-09-12T10:38:27.404Z,98547.41
2022-09-12T10:41:01.186Z,98539.88
2022-09-12T10:43:33.447Z,98540.63
2022-09-12T10:46:15.557Z,98537.94
2022-09-12T10:48:43.108Z,98541.44
2022-09-12T10:51:26.005Z,98541.13
2022-09-12T10:53:59.289Z,98539.38
2022-09-12T10:56:32.992Z,98533.44
2022-09-12T10:59:05.390Z,98527.84
2022-09-12T11:01:45.708Z,98527.97
2022-09-12T11:04:34.049Z,98525.94
2022-09-12T11:07:16.655Z,98531.59
2022-09-12T11:09:57.843Z,98530.81
2022-09-12T11:13:02.443Z,98523.31
2022-09-12T11:15:39.510Z,98527.19
2022-09-12T11:18:44.955Z,98522.22
2022-09-12T11:21:23.301Z,98526.50
2022-09-12T11:24:18.530Z,98527.06
2022-09-12T11:26:53.500Z,98512.44
2022-09-12T11:29:33.669Z,98507.88
2022-09-12T11:32:35.282Z,98512.00
2022-09-12T11:35:17.597Z,98510.22
2022-09-12T11:38:08.192Z,98510.75
2022-09-12T11:40:59.919Z,98502.66
2022-09-12T11:43:38.427Z,98496.47
2022-09-12T11:46:14.133Z,98507.25
2022-09-12T11:48:48.793Z,98494.22
2022-09-12T11:51:19.755Z,98496.09
2022-09-12T11:54:22.223Z,98484.84
2022-09-12T11:56:55.546Z,98492.19
2022-09-12T11:59:39.307Z,98478.56
2022-09-12T12:02:12.296Z,98472.25
2022-09-12T12:04:48.348Z,98473.38
2022-09-12T12:07:15.257Z,98466.28
2022-09-12T12:09:50.169Z,98472.03
2022-09-12T12:12:22.711Z,98462.53
2022-09-12T12:14:52.160Z,98463.81
2022-09-12T12:17:26.092Z,98463.44
2022-09-12T12:20:08.173Z,98463.72
2022-09-12T12:22:35.122Z,98476.63
2022-09-12T12:25:29.012Z,98465.44
2022-09-12T12:28:01.323Z,98467.47
2022-09-12T12:30:30.669Z,98471.63
2022-09-12T12:33:01.944Z,98467.94
2022-09-12T12:35:46.190Z,98468.00
2022-09-12T12:38:33.162Z,98457.72
2022-09-12T12:41:23.514Z,98452.22
2022-09-12T12:43:52.352Z,98452.63
2022-09-12T12:46:22.752Z,98445.50
2022-09-12T12:48:55.355Z,98438.84
2022-09-12T12:51:32.982Z,98428.75
2022-09-12T12:54:02.836Z,98430.34
2022-09-12T12:56:42.424Z,98432.03
2022-09-12T12:59:22.304Z,98433.94
2022-09-12T13:01:55.396Z,98428.91
2022-09-12T13:04:24.801Z,98428.94
2022-09-12T13:06:58.987Z,98425.00
2022-09-12T13:09:37.467Z,98420.84
2022-09-12T13:12:08.448Z,98426.47
2022-09-12T13:14:43.759Z,98426.28
2022-09-12T13:17:24.110Z,98427.63
2022-09-12T13:20:10.853Z,98414.75
2022-09-12T13:22:43.624Z,98418.91
2022-09-12T13:25:28.510Z,98421.22
2022-09-12T13:27:58.855Z,98422.66
2022-09-12T13:30:26.347Z,98421.31
2022-09-12T13:32:53.687Z,98421.38
2022-09-12T13:35:41.070Z,98417.97
2022-09-12T13:38:46.782Z,98413.63
2022-09-12T13:41:19.392Z,98412.31
2022-09-12T13:43:47.669Z,98409.19
2022-09-12T13:46:21.609Z,98406.16
2022-09-12T13:48:48.660Z,98408.44
2022-09-12T13:51:27.579Z,98396.00
2022-09-12T13:53:57.680Z,98402.84
2022-09-12T13:56:24.336Z,98389.91
2022-09-12T13:58:56.824Z,98393.53
2022-09-12T14:01:25.435Z,98389.13
2022-09-12T14:04:13.287Z,98392.59
2022-09-12T14:06:51.583Z,98394.00
2022-09-12T14:09:32.052Z,98390.50
2022-09-12T14:11:59.158Z,98386.44
2022-09-12T14:14:34.079Z,98377.53
2022-09-12T14:17:00.573Z,98382.34
2022-09-12T14:19:29.069Z,98377.31
2022-09-12T14:21:57.437Z,98379.94
2022-09-12T14:24:24.289Z,98374.06
2022-09-12T14:26:54.088Z,98370.47
2022-09-12T14:29:21.889Z,98372.84
2022-09-12T14:32:01.340Z,98364.09
2022-09-12T14:34:27.986Z,98372.44
2022-09-12T14:36:56.218Z,98370.69
2022-09-12T14:39:37.656Z,98359.50
2022-09-12T14:42:12.165Z,98357.69
2022-09-12T14:44:39.357Z,98361.38
2022-09-12T14:47:14.985Z,98357.34
2022-09-12T14:49:42.224Z,98357.53
2022-09-12T14:52:24.790Z,98351.16
2022-09-12T14:55:03.506Z,98351.94
2022-09-12T14:57:33.313Z,98346.81
2022-09-12T15:00:26.237Z,98345.22
2022-09-12T15:02:52.996Z,98345.69
2022-09-12T15:05:25.458Z,98344.81
2022-09-12T15:07:54.011Z,98346.75
2022-09-12T15:10:26.524Z,98352.63
2022-09-12T15:13:11.888Z,98341.72
2022-09-12T15:15:39.496Z,98343.69
2022-09-12T15:18:06.999Z,98336.41
2022-09-12T15:20:37.212Z,98337.56
2022-09-12T15:23:05.114Z,98343.94
2022-09-12T15:25:31.592Z,98339.25
2022-09-12T15:27:57.994Z,98341.69
2022-09-12T15:30:24.390Z,98337.19
2022-09-12T15:32:50.767Z,98337.00
2022-09-12T15:35:19.273Z,98344.06
2022-09-12T15:37:45.667Z,98335.66
2022-09-12T15:40:13.092Z,98333.53
2022-09-12T15:42:39.836Z,98341.94
2022-09-12T15:45:14.477Z,98324.66
2022-09-12T15:47:40.891Z,98331.94
2022-09-12T15:50:07.551Z,98314.28
2022-09-12T15:52:34.510Z,98316.22
2022-09-12T15:55:01.119Z,98321.06
2022-09-12T15:57:27.515Z,98311.16
2022-09-12T15:59:54.650Z,98317.63
2022-09-12T16:02:21.072Z,98312.22
2022-09-12T16:04:48.048Z,98312.81
2022-09-12T16:07:14.895Z,98302.94
2022-09-12T16:09:41.600Z,98299.00
2022-09-12T16:12:09.661Z,98308.88
2022-09-12T16:14:36.093Z,98298.63
2022-09-12T16:17:02.468Z,98296.22
2022-09-12T16:19:28.982Z,98292.94
2022-09-12T16:21:55.356Z,98296.38
2022-09-12T16:24:21.820Z,98302.91
2022-09-12T16:26:48.178Z,98301.25
2022-09-12T16:29:14.851Z,98304.34
2022-09-12T16:31:41.379Z,98305.16
2022-09-12T16:34:07.871Z,98312.59
2022-09-12T16:36:34.345Z,98310.13
2022-09-12T16:39:00.880Z,98305.25
2022-09-12T16:41:27.422Z,98305.63
2022-09-12T16:43:54.875Z,98300.72
2022-09-12T16:46:30.207Z,98296.03
2022-09-12T16:48:58.349Z,98292.22
2022-09-12T16:51:33.649Z,98296.34
2022-09-12T16:54:00.307Z,98298.38
2022-09-12T16:56:26.747Z,98301.09
2022-09-12T16:58:53.598Z,98298.91
2022-09-12T17:01:26.268Z,98308.47
2022-09-12T17:03:56.986Z,98304.88
2022-09-12T17:06:33.053Z,98300.47
2022-09-12T17:09:05.599Z,98305.13
2022-09-12T17:11:35.067Z,98309.19
2022-09-12T17:14:05.465Z,98301.81
2022-09-12T17:16:35.452Z,98297.00
2022-09-12T17:19:02.454Z,98293.41
2022-09-12T17:21:29.033Z,98303.75
2022-09-12T17:23:55.449Z,98303.94
2022-09-12T17:26:22.163Z,98313.91
2022-09-12T17:28:48.807Z,98305.91
2022-09-12T17:31:17.765Z,98315.66
2022-09-12T17:33:45.386Z,98305.25
2022-09-12T17:36:15.282Z,98312.84
2022-09-12T17:38:43.581Z,98300.38
2022-09-12T17:41:15.927Z,98313.72
2022-09-12T17:43:42.409Z,98317.19
2022-09-12T17:46:08.927Z,98318.91
2022-09-12T17:48:35.891Z,98315.03
2022-09-12T17:51:13.467Z,98308.31
2022-09-12T17:53:41.001Z,98309.56
2022-09-12T17:56:08.174Z,98315.41
2022-09-12T17:58:35.236Z,98320.59
2022-09-12T18:01:20.981Z,98311.59
2022-09-12T18:03:47.986Z,98329.09
2022-09-12T18:06:15.023Z,98329.84
2022-09-12T18:08:41.465Z,98332.88
2022-09-12T18:11:08.154Z,98320.41
2022-09-12T18:13:34.973Z,98321.91
2022-09-12T18:16:10.213Z,98322.72
2022-09-12T18:18:37.652Z,98325.69
2022-09-12T18:21:06.073Z,98324.47
2022-09-12T18:23:33.339Z,98330.41
2022-09-12T18:26:01.966Z,98322.09
2022-09-12T18:28:28.376Z,98339.69
2022-09-12T18:30:54.999Z,98335.47
2022-09-12T18:33:24.101Z,98334.38
2022-09-12T18:35:50.974Z,98331.72
2022-09-12T18:38:17.952Z,98337.34
2022-09-12T18:40:44.547Z,98340.81
2022-09-12T18:43:11.069Z,98343.66
2022-09-12T18:45:37.589Z,98348.91
2022-09-12T18:48:06.012Z,98355.56
2022-09-12T18:50:32.965Z,98351.09
2022-09-12T18:53:00.031Z,98350.28
2022-09-12T18:55:26.655Z,98354.22
2022-09-12T18:57:55.075Z,98347.84
2022-09-12T19:00:21.693Z,98341.69
2022-09-12T19:02:48.112Z,98346.81
2022-09-12T19:05:14.645Z,98352.72
2022-09-12T19:07:41.370Z,98349.41
2022-09-12T19:10:09.057Z,98355.91
2022-09-12T19:12:35.677Z,98360.72
2022-09-12T19:15:02.665Z,98352.94
2022-09-12T19:17:29.608Z,98356.38
2022-09-12T19:19:56.307Z,98350.69
2022-09-12T19:22:22.784Z,98348.78
2022-09-12T19:24:49.236Z,98353.63
2022-09-12T19:27:16.176Z,98353.75
2022-09-12T19:29:42.616Z,98352.94
2022-09-12T19:32:08.915Z,98349.97
2022-09-12T19:34:35.303Z,98353.41
2022-09-12T19:37:02.125Z,98346.78
2022-09-12T19:39:28.525Z,98345.81
2022-09-12T19:41:55.177Z,98337.19
2022-09-12T19:44:21.782Z,98345.34
2022-09-12T19:46:48.335Z,98341.78
2022-09-12T19:49:15.005Z,98345.88
2022-09-12T19:51:41.733Z,98338.06
2022-09-12T19:54:08.243Z,98344.38
2022-09-12T19:56:34.694Z,98339.81
2022-09-12T19:59:01.003Z,98338.84
2022-09-12T20:01:28.451Z,98337.03
2022-09-12T20:03:56.485Z,98346.72
2022-09-12T20:06:23.463Z,98358.84
2022-09-12T20:08:49.970Z,98348.25
2022-09-12T20:11:18.989Z,98349.16
2022-09-12T20:13:46.310Z,98342.53
2022-09-12T20:16:21.811Z,98346.16
2022-09-12T20:18:53.623Z,98347.28
2022-09-12T20:21:24.818Z,98348.59
2022-09-12T20:23:51.217Z,98347.25
2022-09-12T20:26:17.624Z,98340.31
2022-09-12T20:28:43.990Z,98345.66
2022-09-12T20:31:13.047Z,98331.16
2022-09-12T20:33:40.037Z,98338.66
2022-09-12T20:36:15.970Z,98332.03
2022-09-12T20:38:47.955Z,98329.56
2022-09-12T20:41:14.648Z,98329.56
2022-09-12T20:43:41.043Z,98335.88
2022-09-12T20:46:12.018Z,98331.81
2022-09-12T20:48:39.144Z,98316.75
2022-09-12T20:51:06.772Z,98323.03
2022-09-12T20:53:35.246Z,98318.34
2022-09-12T20:56:03.240Z,98317.75
2022-09-12T20:58:29.800Z,98315.91
2022-09-12T21:00:56.125Z,98313.88
2022-09-12T21:03:22.721Z,98310.13
2022-09-12T21:05:49.101Z,98307.03
2022-09-12T21:08:15.663Z,98305.63
2022-09-12T21:10:43.431Z,98299.50
2022-09-12T21:13:10.890Z,98293.34
2022-09-12T21:15:41.061Z,98304.56
2022-09-12T21:18:07.989Z,98300.13
2022-09-12T21:20:34.924Z,98302.00
2022-09-12T21:23:01.428Z,98305.16
2022-09-12T21:25:28.993Z,98302.50
2022-09-12T21:27:55.334Z,98302.06
2022-09-12T21:30:22.204Z,98301.25
2022-09-12T21:32:48.599Z,98299.00
2022-09-12T21:35:16.150Z,98301.38
2022-09-12T21:37:42.676Z,98292.66
2022-09-12T21:40:09.168Z,98301.66
2022-09-12T21:42:35.569Z,98302.72
2022-09-12T21:45:02.156Z,98306.03
2022-09-12T21:47:28.532Z,98311.94
2022-09-12T21:49:55.246Z,98312.38
2022-09-12T21:52:21.964Z,98313.16
2022-09-12T21:54:48.335Z,98318.84
2022-09-12T21:57:14.720Z,98316.53
2022-09-12T21:59:41.381Z,98315.94
2022-09-12T22:02:08.612Z,98307.84
2022-09-12T22:04:35.073Z,98312.03
2022-09-12T22:07:02.204Z,98313.78
2022-09-12T22:09:28.556Z,98309.63
2022-09-12T22:11:55.514Z,98309.28
2022-09-12T22:14:21.935Z,98315.13
2022-09-12T22:16:49.340Z,98307.19
2022-09-12T22:19:15.766Z,98317.00
2022-09-12T22:22:02.220Z,98309.41
2022-09-12T22:24:28.934Z,98304.38
2022-09-12T22:26:57.138Z,98309.22
2022-09-12T22:29:23.549Z,98307.34
2022-09-12T22:31:50.274Z,98305.47
2022-09-12T22:34:16.816Z,98309.06
2022-09-12T22:36:43.209Z,98299.41
2022-09-12T22:39:09.666Z,98299.03
2022-09-12T22:41:36.155Z,98301.94
2022-09-12T22:44:02.546Z,98302.34
2022-09-12T22:46:30.439Z,98305.31
2022-09-12T22:48:56.916Z,98305.75
2022-09-12T22:51:23.734Z,98299.31
2022-09-12T22:53:50.107Z,98302.47
2022-09-12T22:56:16.462Z,98289.56
2022-09-12T22:58:43.513Z,98296.44
2022-09-12T23:01:10.334Z,98293.31
2022-09-12T23:03:37.266Z,98299.56
2022-09-12T23:06:04.798Z,98289.81
2022-09-12T23:08:31.930Z,98286.47
2022-09-12T23:11:06.378Z,98285.06
2022-09-12T23:13:33.223Z,98293.59
2022-09-12T23:16:00.781Z,98292.97
2022-09-12T23:18:27.492Z,98296.13
2022-09-12T23:21:06.501Z,98288.00
2022-09-12T23:23:33.336Z,98284.47
2022-09-12T23:26:09.016Z,98277.22
2022-09-12T23:28:35.939Z,98282.03
2022-09-12T23:31:02.425Z,98272.00
2022-09-12T23:33:29.538Z,98266.03
2022-09-12T23:36:14.425Z,98265.13
2022-09-12T23:38:43.315Z,98270.78
2022-09-12T23:41:11.258Z,98273.31
2022-09-12T23:43:38.689Z,98265.63
2022-09-12T23:46:06.044Z,98260.22
2022-09-12T23:48:33.109Z,98258.81
2022-09-12T23:51:00.362Z,98255.50
2022-09-12T23:53:27.176Z,98253.22
2022-09-12T23:55:53.844Z,98250.13
2022-09-12T23:58:22.227Z,98257.66
